Buras, Louisiana
Current Conditions -  °F | °C
As of 2:51 PM on Thursday 18 Dec 2014 (Local Time) from KBVE Reporting Station
Few Clouds Few Clouds  
Wind Chill: 69°   Ceiling: Unl
Heat Index: 69°   Visibility: 10mi
Dew Point: 56°   Wind: 8mph
Humidity: 63%   Direction: 110°ESE
Pressure: 30.1"   Gusts: NA
Location:  29.35°N, 89.52°W
Report Text: KBVE 182051Z AUTO 11007KT 10SM FEW110 21/13 A3010 RMK AO2 SLP193 T02060133 56021
Loading
Personal Weather Stations






























Interactive Weather Map New forecast layout! Learn more

10-Day Weather Forecast

Advertisements
Track Severe Weather on mobile